Time;durP1;ratioP1;P1;durP2;ratioP2;P2;SDS_P1;SDS_P2;PMS_P1;PMS_P2;Temp;Humidity;BMP_temperature;BMP_pressure;BME280_temperature;BME280_humidity;BME280_pressure;Samples;Min_cycle;Max_cycle;Signal;HPM_P1;HPM_P2
2021/12/02 00:01:15;;;;;;;3.83;2.03;;;6.40;93.20;;;;;;5043179;28;20241;-79
2021/12/02 00:03:43;;;;;;;1.83;1.35;;;6.40;92.70;;;;;;5045773;28;20204;-79
2021/12/02 00:06:40;;;;;;;2.78;1.58;;;6.40;92.70;;;;;;5044202;28;20203;-79
2021/12/02 00:09:08;;;;;;;2.30;1.50;;;6.50;92.60;;;;;;5039390;28;20258;-78
2021/12/02 00:11:35;;;;;;;2.92;2.03;;;6.60;92.20;;;;;;5040157;28;20246;-79
2021/12/02 00:14:08;;;;;;;6.10;1.95;;;6.60;92.10;;;;;;5040412;28;20211;-79
2021/12/02 00:16:39;;;;;;;2.88;1.95;;;6.60;92.00;;;;;;5040032;28;20223;-80
2021/12/02 00:21:53;;;;;;;2.17;1.83;;;6.60;91.20;;;;;;5038864;28;20194;-78
2021/12/02 00:24:24;;;;;;;2.20;1.60;;;6.70;90.80;;;;;;5039279;28;20683;-80
2021/12/02 00:26:52;;;;;;;1.30;1.20;;;6.70;90.10;;;;;;5038878;28;20199;-78
2021/12/02 00:29:23;;;;;;;4.18;1.73;;;6.70;89.70;;;;;;5038683;28;20246;-78
2021/12/02 00:31:52;;;;;;;1.90;1.80;;;6.70;89.60;;;;;;5045575;28;20203;-79
2021/12/02 00:34:20;;;;;;;5.40;1.85;;;6.60;89.40;;;;;;5044052;28;20211;-80
2021/12/02 00:36:47;;;;;;;2.70;1.40;;;6.60;90.10;;;;;;5040599;28;20249;-79
2021/12/02 00:39:16;;;;;;;2.78;1.85;;;6.70;89.40;;;;;;5041225;28;20342;-80
2021/12/02 00:41:45;;;;;;;1.25;1.00;;;6.70;88.70;;;;;;5044889;28;20211;-79
2021/12/02 00:44:14;;;;;;;2.25;1.00;;;6.70;89.00;;;;;;5025046;28;20223;-80
2021/12/02 00:46:43;;;;;;;2.60;1.63;;;6.70;88.80;;;;;;5025017;28;20234;-78
2021/12/02 00:49:13;;;;;;;1.35;1.25;;;6.70;88.80;;;;;;5049757;28;20354;-80
2021/12/02 00:51:42;;;;;;;5.15;1.65;;;6.60;89.40;;;;;;5052684;28;20713;-79
2021/12/02 00:54:11;;;;;;;2.47;1.38;;;6.70;90.00;;;;;;5048251;28;20199;-79
2021/12/02 00:56:39;;;;;;;2.65;1.63;;;6.60;90.00;;;;;;5053741;28;20308;-78
2021/12/02 00:59:09;;;;;;;2.10;1.40;;;6.60;90.30;;;;;;5053470;28;20247;-80
2021/12/02 01:01:38;;;;;;;4.50;1.35;;;6.60;90.30;;;;;;5052182;28;20210;-80
2021/12/02 01:04:08;;;;;;;1.52;1.42;;;6.60;90.40;;;;;;5053625;28;20203;-79
2021/12/02 01:06:35;;;;;;;1.50;1.40;;;6.70;90.40;;;;;;5048133;28;20208;-80
2021/12/02 01:09:04;;;;;;;2.05;1.25;;;6.60;90.40;;;;;;5097317;23;20243;-76
2021/12/02 01:11:31;;;;;;;3.25;1.00;;;6.60;90.30;;;;;;5021393;28;20260;-76
2021/12/02 01:13:58;;;;;;;1.40;1.30;;;6.60;90.20;;;;;;5047484;28;20642;-76
2021/12/02 01:16:27;;;;;;;2.17;1.30;;;6.70;90.20;;;;;;5052627;28;20261;-76
2021/12/02 01:18:54;;;;;;;2.10;1.27;;;6.60;90.10;;;;;;5027140;28;20233;-77
2021/12/02 01:21:24;;;;;;;1.27;1.17;;;6.60;90.30;;;;;;5011627;28;20288;-78
2021/12/02 01:23:52;;;;;;;1.48;1.10;;;6.60;90.30;;;;;;5022292;28;20208;-77
2021/12/02 01:26:20;;;;;;;1.85;1.27;;;6.60;90.30;;;;;;5029432;28;20208;-77
2021/12/02 01:28:49;;;;;;;1.50;1.08;;;6.70;90.40;;;;;;5024433;28;20246;-77
2021/12/02 01:31:17;;;;;;;2.28;1.30;;;6.70;90.20;;;;;;5016318;28;20671;-76
2021/12/02 01:33:47;;;;;;;4.05;1.60;;;6.60;90.10;;;;;;5015734;28;20210;-77
2021/12/02 01:36:15;;;;;;;2.10;1.08;;;6.50;90.30;;;;;;5016230;28;20318;-77
2021/12/02 01:39:13;;;;;;;1.98;1.80;;;6.50;90.40;;;;;;5006031;28;20246;-77
2021/12/02 01:41:48;;;;;;;2.03;1.45;;;6.40;90.70;;;;;;5001375;28;20679;-76
2021/12/02 01:44:16;;;;;;;2.50;1.50;;;6.30;91.20;;;;;;5021654;28;20299;-76
2021/12/02 01:46:43;;;;;;;3.03;1.40;;;6.20;92.00;;;;;;5019967;28;20214;-77
2021/12/02 01:49:15;;;;;;;1.73;1.42;;;6.10;92.40;;;;;;5025273;28;20231;-77
2021/12/02 01:55:08;;;;;;;5.80;1.40;;;6.00;93.80;;;;;;4990115;28;20164;-76
2021/12/02 01:57:37;;;;;;;1.58;1.48;;;6.00;93.90;;;;;;4990851;28;20204;-77
2021/12/02 02:00:10;;;;;;;1.48;1.20;;;6.00;94.20;;;;;;4997330;28;20208;-76
2021/12/02 02:02:38;;;;;;;2.47;1.52;;;5.90;94.50;;;;;;5001092;28;20299;-77
2021/12/02 02:05:11;;;;;;;3.75;1.60;;;6.00;94.90;;;;;;5000488;28;20303;-77
2021/12/02 02:07:45;;;;;;;1.08;0.90;;;5.90;94.90;;;;;;5007471;28;20199;-76
2021/12/02 02:10:12;;;;;;;1.65;1.10;;;5.90;94.90;;;;;;5005207;28;20910;-78
2021/12/02 02:12:39;;;;;;;1.70;0.88;;;5.80;95.50;;;;;;5004020;28;20295;-76
2021/12/02 02:15:07;;;;;;;1.17;1.08;;;5.80;95.80;;;;;;5017169;28;20275;-77
2021/12/02 02:17:40;;;;;;;3.55;1.17;;;5.80;96.30;;;;;;5014997;28;20203;-76
2021/12/02 02:20:12;;;;;;;3.78;1.00;;;5.70;96.50;;;;;;5007543;28;20208;-77
2021/12/02 02:22:40;;;;;;;2.88;1.45;;;5.70;96.60;;;;;;5027522;28;20231;-76
2021/12/02 02:25:12;;;;;;;4.32;1.58;;;5.70;97.10;;;;;;5031292;28;20455;-77
2021/12/02 02:27:39;;;;;;;1.38;1.17;;;5.60;97.20;;;;;;5020188;28;20214;-77
2021/12/02 02:30:11;;;;;;;0.90;0.90;;;5.60;97.40;;;;;;5016008;28;20207;-76
2021/12/02 02:32:38;;;;;;;1.50;1.27;;;5.60;97.50;;;;;;5014588;28;20261;-78
2021/12/02 02:35:07;;;;;;;1.70;0.95;;;5.50;97.10;;;;;;5015615;28;20227;-76
2021/12/02 02:37:35;;;;;;;2.33;1.20;;;5.50;97.40;;;;;;5011666;28;20722;-76
2021/12/02 02:40:07;;;;;;;1.30;1.10;;;5.50;97.80;;;;;;5015645;28;20227;-77
2021/12/02 02:42:33;;;;;;;2.17;1.10;;;5.40;97.80;;;;;;4998597;28;20212;-76
2021/12/02 02:45:01;;;;;;;3.30;1.02;;;5.40;98.10;;;;;;5005425;28;20307;-76
2021/12/02 02:47:28;;;;;;;4.82;1.20;;;5.40;98.30;;;;;;5006052;28;20272;-77
2021/12/02 02:49:55;;;;;;;2.00;1.02;;;5.50;98.50;;;;;;4997055;28;20226;-78
2021/12/02 02:52:23;;;;;;;2.70;1.40;;;5.50;98.50;;;;;;5010524;28;20223;-77
2021/12/02 02:54:51;;;;;;;1.80;1.15;;;5.50;98.40;;;;;;5015511;28;20261;-77
2021/12/02 02:57:22;;;;;;;1.45;1.08;;;5.60;98.20;;;;;;5006743;28;20512;-76
2021/12/02 03:02:39;;;;;;;4.00;1.30;;;5.50;97.70;;;;;;5011959;28;20254;-77
2021/12/02 03:05:18;;;;;;;1.98;1.38;;;5.60;97.70;;;;;;5025771;28;20225;-77
2021/12/02 03:07:50;;;;;;;2.22;1.13;;;5.60;97.70;;;;;;5008224;28;20307;-77
2021/12/02 03:10:24;;;;;;;1.77;0.98;;;5.70;97.20;;;;;;5016449;28;20204;-76
2021/12/02 03:12:59;;;;;;;3.58;0.90;;;5.70;97.20;;;;;;5015288;28;20203;-77
2021/12/02 03:18:11;;;;;;;3.25;0.93;;;5.80;96.30;;;;;;5010188;28;20215;-76
2021/12/02 03:20:37;;;;;;;1.50;1.40;;;5.80;95.70;;;;;;5017472;28;20196;-75
2021/12/02 03:23:04;;;;;;;1.10;0.90;;;5.90;95.30;;;;;;5006264;28;20260;-77
2021/12/02 03:25:31;;;;;;;6.28;1.65;;;5.80;94.90;;;;;;5014059;28;20291;-77
2021/12/02 03:27:59;;;;;;;2.45;1.00;;;5.80;94.70;;;;;;5021983;28;20722;-76
2021/12/02 03:30:26;;;;;;;3.22;0.93;;;5.80;94.40;;;;;;5008139;28;20267;-76
2021/12/02 03:32:53;;;;;;;0.80;0.80;;;5.80;94.00;;;;;;4995776;28;20247;-76
2021/12/02 03:35:20;;;;;;;2.10;0.90;;;5.90;93.90;;;;;;4994682;28;20349;-76
2021/12/02 03:37:47;;;;;;;1.77;0.70;;;5.90;93.60;;;;;;4994331;28;20228;-76
2021/12/02 03:40:14;;;;;;;1.70;0.70;;;5.90;92.90;;;;;;4995049;28;20656;-78
2021/12/02 03:42:46;;;;;;;1.20;0.70;;;5.90;92.40;;;;;;4994574;28;20215;-78
2021/12/02 03:45:15;;;;;;;1.80;0.95;;;5.80;91.90;;;;;;5001717;28;20262;-78
2021/12/02 03:47:42;;;;;;;1.02;0.85;;;5.80;91.90;;;;;;5013748;28;20702;-76
2021/12/02 03:50:09;;;;;;;2.47;1.00;;;5.80;91.90;;;;;;5013196;28;20545;-77
2021/12/02 03:52:36;;;;;;;1.13;0.77;;;5.80;91.70;;;;;;5014115;28;20223;-77
2021/12/02 03:55:04;;;;;;;3.60;1.05;;;5.90;91.60;;;;;;5001049;28;20320;-78
2021/12/02 03:57:32;;;;;;;0.70;0.70;;;5.90;91.00;;;;;;4994460;28;20228;-76
2021/12/02 03:59:59;;;;;;;2.55;0.93;;;5.90;90.40;;;;;;4995450;28;20299;-76
2021/12/02 04:02:27;;;;;;;1.23;1.10;;;5.90;90.00;;;;;;5010201;28;20204;-76
2021/12/02 04:04:54;;;;;;;1.70;1.23;;;5.80;89.50;;;;;;5022569;28;20271;-77
2021/12/02 04:07:26;;;;;;;2.38;1.00;;;5.80;89.30;;;;;;5016383;28;20215;-76
2021/12/02 04:09:54;;;;;;;3.30;1.42;;;5.80;88.60;;;;;;5003092;28;20656;-77
2021/12/02 04:12:27;;;;;;;4.45;1.08;;;5.90;88.30;;;;;;4994416;28;20311;-78
2021/12/02 04:15:02;;;;;;;1.42;1.20;;;5.90;87.80;;;;;;5004075;28;20214;-77
2021/12/02 04:17:41;;;;;;;2.47;1.35;;;5.90;87.20;;;;;;5014022;28;20227;-77
2021/12/02 04:20:11;;;;;;;2.70;1.23;;;5.90;86.90;;;;;;5014306;28;20200;-76
2021/12/02 04:22:38;;;;;;;3.90;0.90;;;5.90;87.20;;;;;;5014334;28;20584;-77
2021/12/02 04:25:07;;;;;;;1.10;1.00;;;5.90;87.30;;;;;;5008750;28;20209;-77
2021/12/02 04:27:34;;;;;;;1.25;1.00;;;5.90;87.20;;;;;;5004691;28;20209;-77
2021/12/02 04:30:01;;;;;;;4.72;0.73;;;6.00;87.40;;;;;;5012517;28;20226;-78
2021/12/02 04:32:29;;;;;;;3.53;1.15;;;6.00;86.90;;;;;;5023369;28;20291;-76
2021/12/02 04:34:56;;;;;;;1.95;1.10;;;6.00;87.30;;;;;;5012733;28;20212;-77
2021/12/02 04:37:23;;;;;;;1.42;1.00;;;6.00;87.40;;;;;;5001099;28;20259;-76
2021/12/02 04:39:50;;;;;;;6.05;1.10;;;6.00;87.50;;;;;;5001295;28;20332;-79
2021/12/02 04:42:16;;;;;;;1.17;1.00;;;5.90;87.50;;;;;;4998168;28;20212;-76
2021/12/02 04:44:43;;;;;;;2.00;0.95;;;5.90;88.00;;;;;;4999386;28;20200;-76
2021/12/02 04:47:10;;;;;;;1.20;0.80;;;5.90;88.90;;;;;;4999978;28;20216;-77
2021/12/02 04:49:41;;;;;;;1.25;1.15;;;6.00;89.20;;;;;;5013070;28;20227;-77
2021/12/02 04:52:08;;;;;;;1.85;1.10;;;6.00;89.30;;;;;;5024465;28;20208;-77
2021/12/02 04:54:35;;;;;;;3.08;1.20;;;6.00;88.80;;;;;;5027704;28;20204;-77
2021/12/02 04:57:02;;;;;;;1.90;1.20;;;6.00;88.50;;;;;;5025286;28;20239;-77
2021/12/02 04:59:29;;;;;;;0.90;0.90;;;6.10;88.60;;;;;;5035938;28;20211;-78
2021/12/02 05:01:56;;;;;;;2.05;1.00;;;6.00;88.40;;;;;;5035812;28;20203;-77
2021/12/02 05:04:23;;;;;;;4.75;1.23;;;6.00;88.40;;;;;;5027237;28;20208;-77
2021/12/02 05:06:51;;;;;;;0.95;0.95;;;6.00;88.00;;;;;;5010614;28;20210;-77
2021/12/02 05:09:18;;;;;;;2.40;1.38;;;6.00;88.50;;;;;;5015733;28;20251;-78
2021/12/02 05:11:45;;;;;;;2.30;1.60;;;6.00;88.90;;;;;;5027722;28;20742;-78
2021/12/02 05:14:12;;;;;;;1.60;1.20;;;5.90;88.60;;;;;;5028632;28;20200;-78
2021/12/02 05:16:40;;;;;;;2.05;0.90;;;6.00;88.90;;;;;;5036531;28;20224;-77
2021/12/02 05:19:07;;;;;;;1.02;0.90;;;5.90;88.70;;;;;;5021744;28;20240;-78
2021/12/02 05:21:34;;;;;;;1.95;1.65;;;5.90;88.90;;;;;;4997071;28;20205;-78
2021/12/02 05:24:02;;;;;;;1.70;0.70;;;5.90;89.80;;;;;;5000146;28;20681;-78
2021/12/02 05:26:29;;;;;;;2.13;1.17;;;5.90;89.10;;;;;;5022531;28;20218;-77
2021/12/02 05:28:56;;;;;;;5.32;1.50;;;5.80;89.40;;;;;;5019371;28;20228;-78
2021/12/02 05:31:26;;;;;;;4.72;1.90;;;5.80;89.60;;;;;;4999225;28;20282;-76
2021/12/02 05:33:53;;;;;;;4.03;1.55;;;5.80;90.00;;;;;;4999713;28;20209;-78
2021/12/02 05:36:20;;;;;;;2.85;1.50;;;5.80;90.00;;;;;;4999828;28;20296;-78
2021/12/02 05:38:47;;;;;;;4.35;1.40;;;5.80;90.20;;;;;;4998389;28;20228;-78
2021/12/02 05:41:16;;;;;;;1.50;1.20;;;5.70;90.00;;;;;;5001648;28;20558;-78
2021/12/02 05:43:43;;;;;;;2.63;1.30;;;5.70;90.00;;;;;;5015332;28;20204;-77
2021/12/02 05:46:10;;;;;;;5.18;1.33;;;5.70;89.80;;;;;;5030097;28;20215;-77
2021/12/02 05:48:37;;;;;;;3.70;1.10;;;5.70;89.90;;;;;;5023782;28;20292;-78
2021/12/02 05:51:04;;;;;;;3.47;1.25;;;5.60;90.00;;;;;;5005398;28;20285;-77
2021/12/02 05:53:30;;;;;;;2.13;1.35;;;5.60;89.90;;;;;;5002904;28;20273;-78
2021/12/02 05:55:57;;;;;;;1.98;1.45;;;5.50;90.00;;;;;;5000460;28;20645;-77
2021/12/02 05:58:26;;;;;;;4.13;1.45;;;5.40;90.00;;;;;;5006880;28;20233;-77
2021/12/02 06:00:53;;;;;;;5.10;1.98;;;5.40;90.50;;;;;;5010403;28;20201;-77
2021/12/02 06:03:20;;;;;;;1.70;1.17;;;5.40;90.90;;;;;;5004675;28;20254;-78
2021/12/02 06:05:47;;;;;;;1.48;1.17;;;5.40;91.00;;;;;;5019815;28;20214;-77
2021/12/02 06:08:15;;;;;;;1.50;1.40;;;5.40;91.20;;;;;;5014139;28;20235;-78
2021/12/02 06:10:42;;;;;;;2.17;1.23;;;5.50;91.40;;;;;;5002591;28;20264;-77
2021/12/02 06:13:09;;;;;;;1.80;1.52;;;5.50;91.30;;;;;;5012958;28;20260;-77
2021/12/02 06:15:37;;;;;;;1.45;1.13;;;5.60;91.20;;;;;;5025236;28;20218;-78
2021/12/02 06:18:04;;;;;;;10.85;1.58;;;5.60;90.70;;;;;;5020209;28;20760;-76
2021/12/02 06:20:31;;;;;;;1.83;1.40;;;5.70;90.90;;;;;;5019961;28;20200;-76
2021/12/02 06:22:58;;;;;;;0.90;0.90;;;5.60;90.70;;;;;;5013427;28;20275;-77
2021/12/02 06:28:10;;;;;;;1.60;1.45;;;5.70;90.50;;;;;;5016277;28;20219;-77
2021/12/02 06:30:38;;;;;;;1.58;1.05;;;5.80;90.10;;;;;;5011081;28;20284;-76
2021/12/02 06:33:06;;;;;;;1.30;1.05;;;5.80;90.30;;;;;;5002681;28;20222;-77
2021/12/02 06:35:32;;;;;;;2.85;1.40;;;5.80;89.80;;;;;;5005605;28;20231;-79
2021/12/02 06:37:59;;;;;;;2.55;1.27;;;5.90;89.00;;;;;;5007022;28;20228;-78
2021/12/02 06:40:27;;;;;;;1.73;1.50;;;5.90;88.60;;;;;;5006416;28;20250;-77
2021/12/02 06:42:54;;;;;;;1.30;1.20;;;5.90;88.70;;;;;;5012555;28;20208;-78
2021/12/02 06:45:21;;;;;;;2.50;1.20;;;5.90;88.50;;;;;;5015606;28;20192;-77
2021/12/02 06:47:51;;;;;;;2.67;1.45;;;5.90;89.40;;;;;;5024428;28;20206;-77
2021/12/02 06:50:20;;;;;;;1.30;1.20;;;5.90;88.90;;;;;;5029364;28;20247;-78
2021/12/02 06:52:48;;;;;;;6.18;1.50;;;5.90;88.70;;;;;;5019015;28;20843;-78
2021/12/02 06:55:16;;;;;;;4.35;1.92;;;5.90;88.80;;;;;;5005556;28;20220;-77
2021/12/02 06:57:43;;;;;;;4.10;1.73;;;5.90;89.20;;;;;;5011695;28;20287;-77
2021/12/02 07:00:12;;;;;;;3.72;1.73;;;5.90;90.10;;;;;;5025411;28;20298;-78
2021/12/02 07:02:40;;;;;;;2.70;1.70;;;5.90;90.40;;;;;;5011453;28;20210;-78
2021/12/02 07:05:11;;;;;;;3.08;1.48;;;5.90;90.70;;;;;;4995415;28;20212;-77
2021/12/02 07:07:38;;;;;;;3.90;1.50;;;5.90;91.30;;;;;;4996056;28;20272;-77
2021/12/02 07:10:07;;;;;;;1.35;1.25;;;5.90;92.00;;;;;;5032259;23;20268;-78
2021/12/02 07:12:37;;;;;;;1.92;1.40;;;5.80;91.90;;;;;;5012612;28;20213;-79
2021/12/02 07:15:08;;;;;;;1.77;1.60;;;5.80;92.10;;;;;;5028855;28;20211;-78
2021/12/02 07:17:36;;;;;;;2.50;1.40;;;5.80;92.80;;;;;;5034352;28;20230;-77
2021/12/02 07:20:03;;;;;;;2.92;1.80;;;5.70;93.60;;;;;;5035310;28;20223;-78
2021/12/02 07:22:32;;;;;;;1.90;1.80;;;5.80;94.20;;;;;;5033995;28;20204;-78
2021/12/02 07:24:59;;;;;;;2.83;1.70;;;5.80;94.40;;;;;;5008777;28;20268;-78
2021/12/02 07:27:26;;;;;;;2.80;1.95;;;5.70;94.60;;;;;;5011797;28;20210;-77
2021/12/02 07:29:53;;;;;;;2.25;1.70;;;5.80;95.30;;;;;;5013334;28;20228;-78
2021/12/02 07:32:21;;;;;;;2.67;2.00;;;5.80;95.50;;;;;;5007789;28;20212;-78
2021/12/02 07:34:51;;;;;;;2.08;1.70;;;5.90;95.50;;;;;;5001205;28;20273;-78
2021/12/02 07:37:18;;;;;;;2.25;2.05;;;5.90;95.50;;;;;;5003270;28;20319;-76
2021/12/02 07:39:46;;;;;;;2.28;2.08;;;6.00;95.30;;;;;;4989190;28;20823;-79
2021/12/02 07:42:16;;;;;;;5.40;1.92;;;5.90;95.00;;;;;;5004935;28;20228;-76
2021/12/02 07:44:44;;;;;;;3.55;1.73;;;5.90;95.00;;;;;;5001905;28;20267;-77
2021/12/02 07:47:13;;;;;;;4.78;2.40;;;5.90;95.40;;;;;;5006394;28;20201;-78
2021/12/02 07:49:41;;;;;;;3.10;2.00;;;6.00;95.00;;;;;;4998293;28;20232;-77
2021/12/02 07:52:09;;;;;;;4.47;2.08;;;6.00;94.80;;;;;;5003066;28;20276;-78
2021/12/02 07:54:40;;;;;;;2.17;1.65;;;6.00;94.60;;;;;;5001754;28;20263;-81
2021/12/02 07:57:10;;;;;;;3.70;2.33;;;6.00;94.70;;;;;;4997745;28;20201;-77
2021/12/02 07:59:38;;;;;;;2.00;1.80;;;6.10;94.70;;;;;;4988276;28;20224;-79
2021/12/02 08:02:05;;;;;;;3.30;2.20;;;6.10;94.50;;;;;;4995279;28;20637;-77
2021/12/02 08:04:32;;;;;;;2.72;2.38;;;6.10;94.40;;;;;;4996581;28;20657;-77
2021/12/02 08:06:59;;;;;;;5.20;2.35;;;6.10;94.30;;;;;;4996733;28;20208;-78
2021/12/02 08:09:26;;;;;;;5.97;3.00;;;6.10;94.20;;;;;;4997185;28;20236;-78
2021/12/02 08:11:54;;;;;;;2.97;2.28;;;6.10;93.90;;;;;;4996111;28;20216;-77
2021/12/02 08:14:22;;;;;;;2.53;2.20;;;6.20;93.80;;;;;;4997918;28;20612;-78
2021/12/02 08:16:48;;;;;;;4.03;2.65;;;6.20;93.90;;;;;;5000659;28;20580;-77
2021/12/02 08:19:15;;;;;;;4.28;2.70;;;6.20;93.80;;;;;;5014755;28;20342;-79
2021/12/02 08:21:42;;;;;;;3.60;2.50;;;6.10;93.70;;;;;;5019274;28;20227;-79
2021/12/02 08:24:09;;;;;;;4.80;3.03;;;6.10;93.80;;;;;;5004074;28;20299;-77
2021/12/02 08:26:36;;;;;;;4.68;2.65;;;6.00;93.90;;;;;;5002346;28;20219;-79
2021/12/02 08:29:05;;;;;;;5.40;2.70;;;6.00;94.40;;;;;;5014631;28;20224;-79
2021/12/02 08:31:34;;;;;;;3.58;3.10;;;6.00;95.10;;;;;;5007925;28;20213;-78
2021/12/02 08:34:01;;;;;;;5.40;3.40;;;5.90;95.50;;;;;;5008874;28;20228;-78
2021/12/02 08:36:41;;;;;;;4.93;3.08;;;5.80;96.10;;;;;;5004626;28;20208;-77
2021/12/02 08:39:16;;;;;;;5.05;3.35;;;5.80;96.70;;;;;;4997842;28;20287;-78
2021/12/02 08:41:46;;;;;;;3.40;2.90;;;5.70;97.20;;;;;;5004187;28;20656;-77
2021/12/02 08:44:14;;;;;;;4.88;3.00;;;5.70;97.30;;;;;;5005767;28;20232;-78
2021/12/02 08:46:42;;;;;;;5.13;2.67;;;5.70;97.30;;;;;;5003696;28;20235;-78
2021/12/02 08:49:09;;;;;;;3.15;2.83;;;5.60;97.70;;;;;;5008979;28;20228;-77
2021/12/02 08:51:36;;;;;;;3.10;2.80;;;5.60;97.60;;;;;;5003792;28;20243;-78
2021/12/02 08:54:04;;;;;;;2.53;2.05;;;5.50;98.10;;;;;;5001567;28;20748;-78
2021/12/02 08:56:31;;;;;;;3.08;2.88;;;5.50;98.20;;;;;;5005073;28;20642;-79
2021/12/02 08:58:59;;;;;;;2.63;1.80;;;5.50;98.20;;;;;;5007307;28;20232;-79
2021/12/02 09:01:27;;;;;;;4.38;2.05;;;5.50;98.20;;;;;;5002300;28;20209;-79
2021/12/02 09:03:56;;;;;;;1.35;1.25;;;5.50;97.70;;;;;;5018687;28;20208;-77
2021/12/02 09:06:23;;;;;;;1.52;1.42;;;5.40;97.10;;;;;;5022229;28;20247;-77
2021/12/02 09:08:53;;;;;;;2.17;1.70;;;5.40;97.10;;;;;;4999883;28;20283;-79
2021/12/02 09:11:20;;;;;;;2.30;1.83;;;5.40;97.10;;;;;;4995810;28;20211;-79
2021/12/02 09:13:47;;;;;;;5.43;1.85;;;5.40;97.10;;;;;;4994638;28;20312;-78
2021/12/02 09:16:15;;;;;;;1.70;1.50;;;5.40;97.00;;;;;;4996738;28;20242;-78
2021/12/02 09:18:42;;;;;;;2.80;1.30;;;5.40;97.00;;;;;;4988579;28;20226;-79
2021/12/02 09:21:10;;;;;;;2.30;1.50;;;5.40;96.60;;;;;;4995790;28;20239;-79
2021/12/02 09:23:37;;;;;;;1.55;1.23;;;5.40;96.30;;;;;;4997337;28;20295;-79
2021/12/02 09:26:05;;;;;;;1.75;1.65;;;5.40;95.90;;;;;;4989063;28;20209;-79
2021/12/02 09:28:33;;;;;;;3.10;1.85;;;5.40;95.90;;;;;;4994843;28;20623;-78
2021/12/02 09:31:00;;;;;;;2.10;1.90;;;5.40;96.00;;;;;;5000150;28;20205;-79
2021/12/02 09:33:27;;;;;;;3.45;2.30;;;5.40;95.70;;;;;;4998858;28;20767;-79
2021/12/02 09:35:54;;;;;;;2.55;2.15;;;5.30;95.80;;;;;;4998138;28;20228;-77
2021/12/02 09:38:22;;;;;;;2.28;2.08;;;5.30;96.60;;;;;;4995569;28;20692;-77
2021/12/02 09:40:49;;;;;;;2.55;1.90;;;5.30;97.00;;;;;;4996725;28;20628;-77
2021/12/02 09:43:16;;;;;;;2.72;2.10;;;5.30;97.90;;;;;;4999122;28;20225;-78
2021/12/02 09:45:44;;;;;;;2.65;1.95;;;5.40;98.60;;;;;;5005363;28;20212;-76
2021/12/02 09:48:25;;;;;;;3.58;2.00;;;5.40;98.20;;;;;;5001220;28;20266;-77
2021/12/02 09:51:03;;;;;;;2.28;1.60;;;5.30;97.70;;;;;;5009274;28;20243;-76
2021/12/02 09:53:37;;;;;;;1.90;1.58;;;5.40;97.50;;;;;;5004363;28;20208;-78
2021/12/02 09:56:13;;;;;;;4.22;2.13;;;5.40;97.60;;;;;;4998782;28;20209;-76
2021/12/02 09:58:40;;;;;;;2.97;2.10;;;5.50;97.60;;;;;;5014342;28;20266;-77
2021/12/02 10:01:09;;;;;;;2.13;1.90;;;5.50;97.10;;;;;;5023779;28;20287;-78
2021/12/02 10:03:38;;;;;;;5.90;2.70;;;5.50;97.00;;;;;;5029612;28;20212;-77
2021/12/02 10:06:08;;;;;;;4.38;2.25;;;5.60;97.00;;;;;;5027401;28;20329;-77
2021/12/02 10:08:47;;;;;;;2.33;1.80;;;5.60;97.10;;;;;;5030559;28;20224;-79
2021/12/02 10:11:26;;;;;;;2.55;2.05;;;5.60;96.50;;;;;;5029252;28;20207;-78
2021/12/02 10:14:00;;;;;;;2.80;2.25;;;5.60;96.40;;;;;;5000140;28;20290;-77
2021/12/02 10:16:30;;;;;;;2.35;2.05;;;5.60;96.50;;;;;;4999706;28;20577;-77
2021/12/02 10:19:05;;;;;;;3.30;1.95;;;5.70;96.60;;;;;;5001630;28;20224;-79
2021/12/02 10:21:38;;;;;;;4.45;2.10;;;5.70;96.50;;;;;;5015825;28;20219;-79
2021/12/02 10:24:18;;;;;;;4.78;2.03;;;5.70;96.00;;;;;;5018552;28;20235;-78
2021/12/02 10:26:49;;;;;;;2.60;2.40;;;5.70;96.00;;;;;;5022006;28;20196;-77
2021/12/02 10:29:19;;;;;;;5.53;1.80;;;5.70;96.00;;;;;;5017147;28;20228;-80
2021/12/02 10:31:48;;;;;;;1.90;1.77;;;5.70;95.40;;;;;;5011250;28;20214;-79
2021/12/02 10:34:18;;;;;;;2.35;2.15;;;5.60;95.40;;;;;;5017758;28;20212;-78
2021/12/02 10:36:48;;;;;;;2.65;1.75;;;5.70;95.40;;;;;;5002525;28;20606;-77
2021/12/02 10:39:18;;;;;;;2.60;1.38;;;5.60;95.20;;;;;;4998853;28;20236;-78
2021/12/02 10:41:46;;;;;;;2.25;1.85;;;5.60;95.10;;;;;;4999190;28;20264;-78
2021/12/02 10:44:19;;;;;;;2.30;1.75;;;5.60;95.40;;;;;;4999094;28;20223;-77
2021/12/02 10:47:02;;;;;;;3.35;1.65;;;5.70;95.50;;;;;;4997839;28;20227;-77
2021/12/02 10:49:31;;;;;;;2.92;1.92;;;5.70;94.90;;;;;;5011800;28;20331;-78
2021/12/02 10:52:01;;;;;;;2.47;1.77;;;5.70;94.50;;;;;;5024122;28;20230;-79
2021/12/02 10:54:32;;;;;;;3.95;1.92;;;5.70;94.30;;;;;;5024033;28;20222;-79
2021/12/02 10:57:00;;;;;;;5.18;2.15;;;5.70;94.00;;;;;;5025021;28;20203;-78
2021/12/02 10:59:34;;;;;;;2.65;1.75;;;5.80;93.70;;;;;;5032173;28;20232;-77
2021/12/02 11:02:05;;;;;;;2.30;2.00;;;5.80;93.50;;;;;;5033306;28;20227;-78
2021/12/02 11:04:38;;;;;;;1.88;1.70;;;5.80;92.80;;;;;;5020637;28;20196;-77
2021/12/02 11:07:11;;;;;;;3.70;2.08;;;5.80;91.90;;;;;;5013068;28;20283;-78
2021/12/02 11:09:42;;;;;;;3.10;1.95;;;5.90;91.90;;;;;;5012170;28;20308;-79
2021/12/02 11:12:17;;;;;;;2.85;2.38;;;5.90;91.00;;;;;;5011744;28;20208;-78
2021/12/02 11:14:55;;;;;;;2.42;1.63;;;6.00;90.80;;;;;;5011835;28;20212;-78
2021/12/02 11:17:23;;;;;;;2.88;1.90;;;6.00;88.60;;;;;;4986647;28;20635;-77
2021/12/02 11:19:52;;;;;;;2.83;1.65;;;6.00;87.70;;;;;;5002379;28;20260;-77
2021/12/02 11:22:20;;;;;;;1.92;1.65;;;6.10;87.30;;;;;;5006587;28;20223;-78
2021/12/02 11:24:51;;;;;;;2.45;1.77;;;6.10;86.40;;;;;;5016911;28;20215;-78
2021/12/02 11:27:21;;;;;;;2.33;2.13;;;6.30;85.60;;;;;;5023785;28;20207;-78
2021/12/02 11:29:55;;;;;;;2.20;2.00;;;6.40;85.70;;;;;;5023616;28;20278;-78
2021/12/02 11:32:41;;;;;;;2.38;2.13;;;6.60;84.90;;;;;;5028523;28;20279;-77
2021/12/02 11:35:16;;;;;;;2.78;2.00;;;6.80;83.00;;;;;;5029379;28;20204;-77
2021/12/02 11:37:55;;;;;;;3.67;2.60;;;6.90;83.00;;;;;;5026396;28;20195;-78
2021/12/02 11:40:26;;;;;;;4.93;2.60;;;6.90;83.00;;;;;;5008400;28;20232;-78
2021/12/02 11:42:54;;;;;;;3.17;2.83;;;7.00;83.10;;;;;;5007307;28;20746;-80
2021/12/02 11:45:22;;;;;;;4.60;2.60;;;7.00;82.00;;;;;;5007662;28;20228;-79
2021/12/02 11:47:53;;;;;;;2.92;2.65;;;7.00;83.10;;;;;;5007816;28;20695;-79
2021/12/02 11:50:22;;;;;;;6.03;3.17;;;7.10;82.40;;;;;;5026636;28;20668;-79
2021/12/02 11:52:49;;;;;;;2.92;2.60;;;7.10;82.40;;;;;;5026458;28;20230;-79
2021/12/02 11:55:18;;;;;;;4.15;3.17;;;7.20;82.40;;;;;;4988940;28;20304;-79
2021/12/02 11:57:48;;;;;;;2.83;2.33;;;7.20;81.50;;;;;;5021727;28;20342;-81
2021/12/02 12:00:18;;;;;;;3.35;3.05;;;7.20;81.00;;;;;;5029443;28;20232;-78
2021/12/02 12:02:56;;;;;;;2.80;2.55;;;7.20;80.90;;;;;;5015995;28;20270;-79
2021/12/02 12:05:28;;;;;;;6.28;2.50;;;6.90;77.00;;;;;;5002245;28;20208;-78
2021/12/02 12:07:56;;;;;;;2.55;1.77;;;6.60;75.80;;;;;;5000974;28;20243;-78
2021/12/02 12:10:27;;;;;;;2.75;0.90;;;6.30;74.10;;;;;;5002058;28;20244;-78
2021/12/02 12:13:15;;;;;;;5.05;1.30;;;5.70;69.30;;;;;;5010117;28;20211;-79
2021/12/02 12:15:44;;;;;;;4.05;1.27;;;5.40;72.30;;;;;;5005679;28;20216;-78
2021/12/02 12:18:18;;;;;;;1.15;1.15;;;5.20;75.60;;;;;;5000569;28;20219;-77
2021/12/02 12:21:05;;;;;;;2.35;1.17;;;4.80;77.10;;;;;;5003246;28;20238;-76
2021/12/02 12:23:42;;;;;;;1.52;1.00;;;4.40;81.10;;;;;;5008634;28;20294;-77
2021/12/02 12:26:30;;;;;;;1.63;1.10;;;4.40;85.00;;;;;;5005004;28;20211;-77
2021/12/02 12:29:32;;;;;;;1.55;1.45;;;4.50;88.70;;;;;;5008745;28;20288;-79
2021/12/02 12:32:19;;;;;;;2.22;1.40;;;4.50;90.10;;;;;;5005175;28;20652;-78
2021/12/02 12:34:54;;;;;;;3.70;1.65;;;4.60;90.70;;;;;;5008322;28;20212;-77
2021/12/02 12:37:51;;;;;;;2.15;1.45;;;4.80;91.30;;;;;;5002158;28;20207;-78
2021/12/02 12:40:22;;;;;;;3.08;2.03;;;4.90;91.60;;;;;;5012820;28;20232;-78
2021/12/02 12:42:51;;;;;;;3.13;2.30;;;5.00;92.00;;;;;;5016208;28;20196;-78
2021/12/02 12:45:28;;;;;;;2.95;2.05;;;5.10;91.80;;;;;;5016706;28;20205;-75
2021/12/02 12:47:58;;;;;;;3.97;2.10;;;5.20;91.40;;;;;;5011929;28;20212;-75
2021/12/02 12:50:29;;;;;;;3.22;1.50;;;5.30;89.00;;;;;;5007876;28;20196;-77
2021/12/02 12:53:19;;;;;;;2.42;1.73;;;5.30;86.30;;;;;;5014897;28;20227;-76
2021/12/02 12:56:03;;;;;;;3.40;1.50;;;5.30;81.70;;;;;;5010133;28;20209;-77
2021/12/02 12:58:31;;;;;;;2.33;1.65;;;5.40;79.60;;;;;;4982793;28;20660;-77
2021/12/02 13:01:01;;;;;;;1.95;1.40;;;5.50;77.80;;;;;;4985195;28;20213;-79
2021/12/02 13:03:31;;;;;;;2.10;1.23;;;5.50;76.60;;;;;;4985413;28;20213;-77
2021/12/02 13:06:06;;;;;;;1.50;1.10;;;5.50;75.90;;;;;;4985273;28;20209;-78
2021/12/02 13:08:36;;;;;;;1.30;1.10;;;5.60;75.10;;;;;;4990217;28;20297;-76
2021/12/02 13:11:11;;;;;;;2.65;1.23;;;5.60;73.50;;;;;;4989416;28;20208;-78
2021/12/02 13:13:39;;;;;;;1.23;1.13;;;5.60;73.50;;;;;;4991671;28;20268;-77
2021/12/02 13:16:31;;;;;;;2.35;1.20;;;5.70;73.70;;;;;;4987965;28;20664;-77
2021/12/02 13:19:10;;;;;;;1.58;1.45;;;5.70;73.60;;;;;;4986222;28;20232;-78
2021/12/02 13:21:37;;;;;;;2.22;1.20;;;5.80;72.70;;;;;;4986388;28;20199;-76
2021/12/02 13:24:06;;;;;;;2.20;1.33;;;5.70;69.30;;;;;;4982887;28;20212;-77
2021/12/02 13:26:35;;;;;;;2.00;1.40;;;5.70;70.50;;;;;;4983396;28;20228;-77